Time;durP1;ratioP1;P1;durP2;ratioP2;P2;SDS_P1;SDS_P2;PMS_P1;PMS_P2;Temp;Humidity;BMP_temperature;BMP_pressure;BME280_temperature;BME280_humidity;BME280_pressure;Samples;Min_cycle;Max_cycle;Signal;HPM_P1;HPM_P2
2021/05/24 00:01:21;;;;;;;1.63;1.00;;;;;;;12.86;31.42;100871.69;3550203;40;20046;-78
2021/05/24 00:03:48;;;;;;;2.28;1.00;;;;;;;12.86;31.65;100858.81;3550292;40;20123;-78
2021/05/24 00:06:16;;;;;;;1.60;0.90;;;;;;;12.86;31.74;100863.44;3559077;40;20379;-78
2021/05/24 00:08:44;;;;;;;1.77;0.90;;;;;;;12.84;31.77;100858.13;3558969;40;20046;-77
2021/05/24 00:11:12;;;;;;;2.40;1.00;;;;;;;12.85;31.86;100858.97;3549862;40;20034;-78
2021/05/24 00:13:45;;;;;;;1.63;0.95;;;;;;;12.85;31.71;100851.59;3541587;40;20053;-78
2021/05/24 00:16:13;;;;;;;1.63;0.90;;;;;;;12.83;31.89;100841.78;3549344;40;20122;-78
2021/05/24 00:18:43;;;;;;;0.88;0.63;;;;;;;12.82;32.03;100846.41;3549525;40;20064;-77
2021/05/24 00:21:10;;;;;;;2.60;1.00;;;;;;;12.79;32.05;100833.84;3556967;40;20030;-78
2021/05/24 00:23:38;;;;;;;2.15;1.00;;;;;;;12.79;32.18;100842.06;3550293;40;20038;-78
2021/05/24 00:26:06;;;;;;;1.48;0.95;;;;;;;12.78;31.99;100834.84;3550086;40;20050;-78
2021/05/24 00:28:34;;;;;;;1.55;0.82;;;;;;;12.77;32.16;100830.38;3550202;40;20058;-77
2021/05/24 00:31:03;;;;;;;1.90;0.88;;;;;;;12.77;32.36;100827.63;3549621;40;20050;-78
2021/05/24 00:33:31;;;;;;;1.75;0.80;;;;;;;12.74;32.09;100816.97;3559273;40;20045;-78
2021/05/24 00:35:58;;;;;;;1.77;0.80;;;;;;;12.74;32.41;100822.44;3559472;40;20057;-78
2021/05/24 00:38:26;;;;;;;1.85;0.90;;;;;;;12.74;32.40;100824.34;3550208;40;20426;-78
2021/05/24 00:40:56;;;;;;;2.63;1.00;;;;;;;12.72;32.48;100810.75;3559005;40;20041;-78
2021/05/24 00:43:24;;;;;;;1.38;0.80;;;;;;;12.71;32.36;100803.53;3559165;40;20417;-78
2021/05/24 00:45:52;;;;;;;1.80;1.00;;;;;;;12.71;32.38;100806.25;3559313;40;20427;-78
2021/05/24 00:48:21;;;;;;;1.33;0.80;;;;;;;12.70;32.62;100804.53;3559261;40;20038;-78
2021/05/24 00:50:48;;;;;;;1.30;0.82;;;;;;;12.68;32.57;100800.19;3559068;40;20120;-78
2021/05/24 00:53:16;;;;;;;1.70;0.77;;;;;;;12.68;32.76;100798.31;3549689;40;20316;-78
2021/05/24 00:55:44;;;;;;;3.05;1.00;;;;;;;12.65;32.89;100790.41;3558884;40;20080;-78
2021/05/24 00:58:12;;;;;;;2.50;0.90;;;;;;;12.65;32.74;100790.41;3559046;40;20387;-78
2021/05/24 01:00:43;;;;;;;1.48;0.85;;;;;;;12.66;32.99;100785.78;3549702;40;20139;-78
2021/05/24 01:03:13;;;;;;;1.42;0.98;;;;;;;12.64;33.03;100777.69;3549239;40;20033;-78
2021/05/24 01:05:44;;;;;;;1.55;0.88;;;;;;;12.64;33.15;100783.19;3549369;40;20071;-77
2021/05/24 01:08:14;;;;;;;1.02;0.88;;;;;;;12.61;33.01;100780.72;3553523;40;20065;-78
2021/05/24 01:10:44;;;;;;;1.92;0.73;;;;;;;12.62;33.04;100776.09;3558948;40;20378;-78
2021/05/24 01:13:13;;;;;;;2.80;1.00;;;;;;;12.59;32.88;100771.78;3558544;40;20062;-78
2021/05/24 01:15:41;;;;;;;2.50;0.82;;;;;;;12.59;33.37;100770.91;3558288;40;20116;-78
2021/05/24 01:18:10;;;;;;;2.78;1.05;;;;;;;12.57;33.33;100767.44;3548753;40;20041;-78
2021/05/24 01:20:39;;;;;;;1.45;0.80;;;;;;;12.54;33.23;100756.75;3557921;40;20065;-77
2021/05/24 01:23:10;;;;;;;3.13;0.90;;;;;;;12.52;33.56;100762.38;3548996;40;20057;-78
2021/05/24 01:25:40;;;;;;;2.47;0.93;;;;;;;12.52;33.76;100762.38;3558372;40;20072;-77
2021/05/24 01:28:14;;;;;;;1.23;0.80;;;;;;;12.52;34.15;100759.66;3549445;40;20042;-77
2021/05/24 01:30:43;;;;;;;1.70;0.82;;;;;;;12.47;33.75;100755.63;3557773;40;20062;-77
2021/05/24 01:33:13;;;;;;;1.05;0.70;;;;;;;12.46;33.88;100751.16;3539165;40;20054;-77
2021/05/24 01:35:42;;;;;;;2.20;1.02;;;;;;;12.43;34.03;100747.66;3542591;40;20038;-77
2021/05/24 01:38:11;;;;;;;1.95;0.82;;;;;;;12.44;33.97;100743.06;3557766;40;20057;-78
2021/05/24 01:40:40;;;;;;;1.42;0.90;;;;;;;12.40;34.03;100748.00;3542111;40;20062;-77
2021/05/24 01:43:07;;;;;;;2.17;0.88;;;;;;;12.40;34.25;100733.41;3540011;40;20116;-77
2021/05/24 01:45:38;;;;;;;2.25;0.95;;;;;;;12.39;34.04;100735.28;3540547;40;20058;-77
2021/05/24 01:48:06;;;;;;;2.60;1.13;;;;;;;12.39;34.46;100739.91;3532571;40;20030;-77
2021/05/24 01:50:34;;;;;;;2.72;1.17;;;;;;;12.38;34.23;100733.53;3549343;40;20129;-77
2021/05/24 01:53:03;;;;;;;2.95;1.15;;;;;;;12.36;34.21;100743.78;3558074;40;20056;-77
2021/05/24 01:55:32;;;;;;;0.98;0.80;;;;;;;12.36;34.35;100738.31;3549799;40;20054;-78
2021/05/24 01:58:00;;;;;;;1.23;0.80;;;;;;;12.33;34.21;100730.41;3559022;40;20581;-77
2021/05/24 02:00:27;;;;;;;1.25;0.80;;;;;;;12.32;34.75;100736.88;3549958;40;20295;-77
2021/05/24 02:02:55;;;;;;;0.98;0.80;;;;;;;12.32;34.64;100733.28;3565638;40;20054;-77
2021/05/24 02:05:24;;;;;;;1.65;0.90;;;;;;;12.31;34.73;100737.03;3550134;40;20747;-77
2021/05/24 02:07:54;;;;;;;1.13;0.75;;;;;;;12.30;34.51;100729.81;3540328;40;20098;-77
2021/05/24 02:10:24;;;;;;;2.92;0.90;;;;;;;12.29;34.71;100728.94;3549709;40;20050;-77
2021/05/24 02:12:53;;;;;;;1.65;0.80;;;;;;;12.29;34.88;100725.34;3556395;40;20054;-77
2021/05/24 02:15:25;;;;;;;1.88;0.82;;;;;;;12.27;34.87;100719.13;3552578;40;20326;-78
2021/05/24 02:17:53;;;;;;;2.33;0.80;;;;;;;12.23;34.82;100724.03;3552129;40;20085;-78
2021/05/24 02:20:24;;;;;;;2.38;1.02;;;;;;;12.25;34.96;100716.56;3547253;40;20065;-77
2021/05/24 02:22:52;;;;;;;2.97;0.95;;;;;;;12.24;35.09;100724.91;3558462;40;20064;-76
2021/05/24 02:25:20;;;;;;;3.08;1.10;;;;;;;12.22;35.01;100711.34;3555908;40;20058;-77
2021/05/24 02:27:48;;;;;;;2.28;0.80;;;;;;;12.22;35.30;100710.47;3549985;40;20053;-77
2021/05/24 02:30:19;;;;;;;1.60;0.80;;;;;;;12.24;36.07;100712.06;3552339;40;20411;-77
2021/05/24 02:32:48;;;;;;;2.30;0.88;;;;;;;12.21;35.25;100712.34;3559097;40;20398;-77
2021/05/24 02:35:17;;;;;;;2.45;1.02;;;;;;;12.23;35.55;100702.09;3552441;40;20325;-77
2021/05/24 02:37:46;;;;;;;1.65;1.40;;;;;;;12.22;35.50;100694.88;3553303;40;20026;-77
2021/05/24 02:40:16;;;;;;;1.05;0.80;;;;;;;12.24;35.48;100694.75;3559151;40;20128;-77
2021/05/24 02:42:44;;;;;;;1.38;0.77;;;;;;;12.21;35.66;100698.63;3559244;40;20046;-78
2021/05/24 02:45:14;;;;;;;2.13;0.90;;;;;;;12.21;35.72;100690.41;3556556;40;20041;-76
2021/05/24 02:47:43;;;;;;;1.38;0.73;;;;;;;12.22;35.57;100691.28;3560007;40;20060;-77
2021/05/24 02:50:13;;;;;;;1.27;0.75;;;;;;;12.24;35.95;100694.75;3542687;40;20041;-77
2021/05/24 02:52:41;;;;;;;1.70;1.00;;;;;;;12.22;35.78;100697.63;3552800;40;20045;-77
2021/05/24 02:55:10;;;;;;;1.65;0.85;;;;;;;12.22;36.00;100686.66;3550115;40;20049;-78
2021/05/24 02:57:38;;;;;;;1.35;0.82;;;;;;;12.22;35.85;100688.53;3561313;40;20058;-77
2021/05/24 03:00:08;;;;;;;1.67;0.82;;;;;;;12.22;35.80;100686.66;3558979;40;20054;-78
2021/05/24 03:02:44;;;;;;;1.42;0.70;;;;;;;12.22;36.00;100674.81;3558232;40;20038;-77
2021/05/24 03:05:16;;;;;;;1.42;0.80;;;;;;;12.24;36.32;100683.78;3558839;40;20421;-77
2021/05/24 03:07:44;;;;;;;1.83;0.70;;;;;;;12.20;35.81;100680.44;3558253;40;20034;-78
2021/05/24 03:10:12;;;;;;;1.63;0.80;;;;;;;12.22;36.11;100683.06;3558894;40;20037;-77
2021/05/24 03:12:41;;;;;;;1.33;0.80;;;;;;;12.22;35.92;100686.66;3541513;40;20053;-77
2021/05/24 03:15:10;;;;;;;1.60;1.08;;;;;;;12.22;36.44;100672.09;3548881;40;20030;-77
2021/05/24 03:17:38;;;;;;;2.53;0.95;;;;;;;12.23;36.18;100671.06;3558391;40;20102;-77
2021/05/24 03:20:09;;;;;;;1.35;0.73;;;;;;;12.25;36.33;100674.53;3557277;40;20057;-77
2021/05/24 03:22:38;;;;;;;1.92;0.90;;;;;;;12.25;36.40;100674.53;3558141;40;20057;-77
2021/05/24 03:25:07;;;;;;;1.73;0.80;;;;;;;12.24;36.21;100668.19;3549534;40;20070;-78
2021/05/24 03:27:35;;;;;;;1.13;0.70;;;;;;;12.23;36.53;100671.94;3553337;40;20132;-77
2021/05/24 03:30:06;;;;;;;1.17;0.80;;;;;;;12.24;36.38;100664.59;3557296;40;20030;-77
2021/05/24 03:32:34;;;;;;;1.88;0.75;;;;;;;12.24;36.45;100670.06;3553625;40;20556;-77
2021/05/24 03:35:03;;;;;;;2.45;0.80;;;;;;;12.24;36.52;100659.97;3551623;40;20086;-77
2021/05/24 03:37:30;;;;;;;1.27;0.90;;;;;;;12.26;36.56;100665.31;3556646;40;20073;-77
2021/05/24 03:40:00;;;;;;;1.52;0.88;;;;;;;12.28;36.75;100668.75;3558261;40;20098;-77
2021/05/24 03:42:27;;;;;;;1.55;0.90;;;;;;;12.28;36.57;100666.00;3548553;40;20050;-77
2021/05/24 03:44:56;;;;;;;2.78;1.00;;;;;;;12.30;36.87;100667.59;3558625;40;20394;-77
2021/05/24 03:47:24;;;;;;;1.98;0.90;;;;;;;12.31;36.63;100657.47;3551641;40;20038;-77
2021/05/24 03:49:52;;;;;;;1.35;0.88;;;;;;;12.34;36.87;100651.72;3558409;40;20140;-77
2021/05/24 03:52:19;;;;;;;2.38;0.80;;;;;;;12.36;36.65;100663.38;3558599;40;20033;-77
2021/05/24 03:54:47;;;;;;;1.75;0.85;;;;;;;12.38;36.79;100659.47;3557493;40;20276;-77
2021/05/24 03:57:16;;;;;;;1.55;0.90;;;;;;;12.43;36.65;100661.75;3556634;40;20594;-77
2021/05/24 03:59:44;;;;;;;2.65;0.85;;;;;;;12.44;37.00;100652.53;3558966;40;20057;-77
2021/05/24 04:02:12;;;;;;;2.63;0.90;;;;;;;12.46;36.82;100652.38;3538042;40;20139;-77
2021/05/24 04:04:41;;;;;;;1.67;0.90;;;;;;;12.49;36.71;100644.72;3558124;40;20077;-78
2021/05/24 04:07:11;;;;;;;2.90;1.02;;;;;;;12.52;36.71;100646.28;3549150;40;20034;-77
2021/05/24 04:09:38;;;;;;;2.72;0.90;;;;;;;12.54;36.82;100641.53;3550460;40;20294;-77
2021/05/24 04:12:07;;;;;;;2.55;0.98;;;;;;;12.57;36.80;100635.75;3548581;40;20422;-77
2021/05/24 04:14:39;;;;;;;2.72;1.00;;;;;;;12.59;36.95;100639.22;3548659;40;20053;-77
2021/05/24 04:17:28;;;;;;;1.65;0.98;;;;;;;12.57;36.82;100631.13;3551842;40;20042;-77
2021/05/24 04:20:17;;;;;;;2.05;0.95;;;;;;;12.60;36.47;100629.94;3550241;40;20061;-77
2021/05/24 04:23:05;;;;;;;1.40;0.90;;;;;;;12.62;36.71;100617.78;3559370;40;20085;-78
2021/05/24 04:25:52;;;;;;;2.75;0.80;;;;;;;12.65;36.86;100616.63;3559171;40;20077;-77
2021/05/24 04:28:40;;;;;;;1.55;0.80;;;;;;;12.67;36.97;100612.75;3559319;40;20042;-77
2021/05/24 04:31:28;;;;;;;2.30;0.90;;;;;;;12.70;36.89;100614.28;3559030;40;20131;-77
2021/05/24 04:34:16;;;;;;;1.73;0.80;;;;;;;12.72;36.99;100629.59;3559185;40;20042;-77
2021/05/24 04:36:48;;;;;;;1.97;0.90;;;;;;;12.74;36.68;100624.84;3545375;40;20038;-77
2021/05/24 04:39:36;;;;;;;1.17;0.80;;;;;;;12.78;36.71;100618.00;3554448;40;20281;-77
2021/05/24 04:42:23;;;;;;;1.85;0.80;;;;;;;12.82;36.72;100624.06;3551336;40;20450;-78
2021/05/24 04:45:11;;;;;;;1.77;0.75;;;;;;;12.83;36.60;100617.56;3559157;40;20277;-78
2021/05/24 04:48:00;;;;;;;1.80;0.82;;;;;;;12.88;36.42;100628.06;3559203;40;20066;-77
2021/05/24 04:50:47;;;;;;;2.17;0.80;;;;;;;12.88;36.48;100623.44;3559063;40;20042;-77
2021/05/24 04:53:35;;;;;;;1.55;0.80;;;;;;;12.90;36.37;100607.69;3551284;40;20030;-77
2021/05/24 04:56:22;;;;;;;0.95;0.63;;;;;;;12.94;36.18;100611.00;3551713;40;20271;-78
2021/05/24 04:59:10;;;;;;;2.22;0.90;;;;;;;12.95;36.76;100619.09;3551542;40;20659;-77
2021/05/24 05:01:57;;;;;;;2.72;0.80;;;;;;;12.97;36.49;100603.34;3559044;40;20143;-78
2021/05/24 05:04:46;;;;;;;2.97;1.00;;;;;;;13.00;36.38;100608.53;3558974;40;20050;-77
2021/05/24 05:07:34;;;;;;;3.65;0.80;;;;;;;13.01;36.48;100609.38;3559080;40;20060;-78
2021/05/24 05:10:22;;;;;;;2.22;0.90;;;;;;;13.04;36.42;100606.31;3558885;40;20054;-77
2021/05/24 05:13:10;;;;;;;1.92;0.73;;;;;;;13.07;36.38;100608.78;3559226;40;20034;-77
2021/05/24 05:15:58;;;;;;;1.58;0.80;;;;;;;13.10;36.65;100602.94;3559071;40;20030;-78
2021/05/24 05:18:45;;;;;;;1.75;0.80;;;;;;;13.14;36.54;100599.75;3541659;40;20316;-77
2021/05/24 05:21:35;;;;;;;1.98;0.80;;;;;;;13.21;36.73;100604.63;3549606;40;20037;-77
2021/05/24 05:24:23;;;;;;;3.78;1.20;;;;;;;13.23;36.76;100606.22;3558799;40;20050;-77
2021/05/24 05:27:10;;;;;;;1.92;1.00;;;;;;;13.32;36.80;100607.16;3541333;40;20130;-77
2021/05/24 05:30:01;;;;;;;1.75;0.80;;;;;;;13.57;38.07;100606.38;3550294;40;20050;-77
2021/05/24 05:32:49;;;;;;;2.67;0.82;;;;;;;13.99;38.95;100616.72;3550465;40;20066;-77
2021/05/24 05:35:31;;;;;;;1.20;0.70;;;;;;;14.46;38.72;100600.66;3548452;40;20077;-78
2021/05/24 05:38:10;;;;;;;2.70;0.75;;;;;;;15.08;39.19;100591.13;3530112;40;20027;-77
2021/05/24 05:40:37;;;;;;;1.27;0.70;;;;;;;15.68;38.72;100589.00;3542403;40;20095;-78
2021/05/24 05:43:05;;;;;;;1.77;0.63;;;;;;;16.27;37.31;100597.06;3543058;40;20055;-77
2021/05/24 05:45:32;;;;;;;1.83;0.73;;;;;;;16.74;36.25;100586.91;3549368;40;20038;-78
2021/05/24 05:48:01;;;;;;;1.27;0.65;;;;;;;17.16;35.67;100585.66;3548752;40;20057;-77
2021/05/24 05:50:29;;;;;;;1.35;0.70;;;;;;;17.58;34.82;100588.00;3548607;40;20061;-77
2021/05/24 05:52:58;;;;;;;1.40;0.70;;;;;;;17.98;34.83;100578.47;3548762;40;20041;-78
2021/05/24 05:55:26;;;;;;;2.10;0.77;;;;;;;18.46;34.28;100585.44;3555818;40;20030;-72
2021/05/24 05:57:54;;;;;;;1.83;0.82;;;;;;;19.03;34.43;100593.06;3546787;40;20185;-70
2021/05/24 06:00:24;;;;;;;1.05;0.60;;;;;;;19.74;34.37;100586.66;3546970;40;20058;-70
2021/05/24 06:02:51;;;;;;;1.45;0.88;;;;;;;20.53;33.63;100583.66;3544209;40;20057;-77
2021/05/24 06:05:19;;;;;;;2.08;0.70;;;;;;;21.36;32.64;100591.78;3536498;40;20394;-77
2021/05/24 06:07:47;;;;;;;2.83;0.65;;;;;;;22.25;31.70;100594.28;3547488;40;20046;-77
2021/05/24 06:10:16;;;;;;;2.95;0.60;;;;;;;23.18;30.77;100583.78;3546937;40;20062;-77
2021/05/24 06:12:47;;;;;;;1.35;0.63;;;;;;;24.09;29.56;100581.50;3547530;40;20041;-77
2021/05/24 06:15:18;;;;;;;1.13;0.50;;;;;;;24.96;29.07;100574.78;3546840;40;20061;-77
2021/05/24 06:17:45;;;;;;;1.35;0.60;;;;;;;25.90;27.57;100579.78;3541151;40;20070;-77
2021/05/24 06:20:16;;;;;;;1.17;0.60;;;;;;;26.83;26.82;100573.38;3540855;40;21048;-77
2021/05/24 06:22:44;;;;;;;1.20;0.50;;;;;;;27.69;25.58;100558.31;3546644;40;20082;-77
2021/05/24 06:25:13;;;;;;;0.65;0.45;;;;;;;28.57;24.49;100568.00;3547379;40;20050;-78
2021/05/24 06:27:42;;;;;;;0.63;0.50;;;;;;;29.36;23.39;100565.69;3547414;40;20061;-78
2021/05/24 06:30:13;;;;;;;1.67;0.52;;;;;;;30.12;22.30;100558.06;3531847;40;20138;-78
2021/05/24 06:32:41;;;;;;;1.58;0.70;;;;;;;30.76;20.90;100563.59;3548164;40;20054;-78
2021/05/24 06:35:10;;;;;;;2.13;0.52;;;;;;;31.33;20.22;100559.94;3549491;40;20141;-78
2021/05/24 06:37:39;;;;;;;2.45;0.57;;;;;;;31.80;19.87;100556.94;3545972;40;20051;-78
2021/05/24 06:40:08;;;;;;;1.63;0.55;;;;;;;32.27;19.05;100563.25;3550016;40;20034;-78
2021/05/24 06:42:36;;;;;;;1.08;0.47;;;;;;;32.67;18.15;100552.16;3545630;40;20371;-75
2021/05/24 06:45:05;;;;;;;1.90;0.80;;;;;;;33.02;17.38;100544.41;3554262;40;20135;-76
2021/05/24 06:47:34;;;;;;;2.42;0.50;;;;;;;33.28;16.09;100547.97;3540123;40;20061;-74
2021/05/24 06:50:03;;;;;;;1.95;0.50;;;;;;;33.36;16.16;100555.03;3547003;40;20137;-76
2021/05/24 06:52:31;;;;;;;2.38;0.70;;;;;;;33.28;15.77;100527.25;3538920;40;20110;-77
2021/05/24 06:54:59;;;;;;;0.60;0.50;;;;;;;33.06;15.12;100546.66;3546897;40;20509;-74
2021/05/24 06:57:27;;;;;;;1.20;0.70;;;;;;;32.73;15.03;100539.66;3544871;40;20031;-75
2021/05/24 06:59:56;;;;;;;1.33;0.55;;;;;;;32.34;14.93;100528.97;3548153;40;20326;-75
2021/05/24 07:02:23;;;;;;;1.30;0.40;;;;;;;31.85;15.33;100534.34;3548618;40;20058;-76
2021/05/24 07:04:52;;;;;;;1.40;0.60;;;;;;;31.40;14.83;100526.59;3547000;40;20428;-68
2021/05/24 07:07:20;;;;;;;2.05;0.60;;;;;;;30.80;15.12;100513.91;3547244;40;20057;-67
2021/05/24 07:09:48;;;;;;;2.05;0.50;;;;;;;30.02;15.29;100513.66;3546993;40;20046;-68
2021/05/24 07:12:17;;;;;;;1.60;0.50;;;;;;;29.14;15.22;100517.00;3537870;40;20061;-68
2021/05/24 07:14:50;;;;;;;2.05;0.88;;;;;;;28.20;15.70;100519.84;3544934;40;20582;-68
2021/05/24 07:17:18;;;;;;;1.30;0.55;;;;;;;27.26;16.19;100499.88;3547297;40;20046;-67
2021/05/24 07:19:46;;;;;;;1.75;0.60;;;;;;;26.41;16.86;100488.53;3548932;40;20039;-67
2021/05/24 07:22:15;;;;;;;1.33;0.45;;;;;;;25.64;17.36;100496.09;3550348;40;20295;-67
2021/05/24 07:24:43;;;;;;;1.40;0.88;;;;;;;24.91;18.04;100496.31;3548745;40;20054;-66
2021/05/24 07:27:11;;;;;;;1.60;0.50;;;;;;;24.27;18.72;100499.66;3548527;40;20407;-69
2021/05/24 07:29:39;;;;;;;1.92;0.75;;;;;;;23.69;18.68;100499.94;3548021;40;20118;-66
2021/05/24 07:32:10;;;;;;;1.45;0.47;;;;;;;23.16;19.80;100493.84;3548858;40;20340;-67
2021/05/24 07:34:39;;;;;;;1.17;0.50;;;;;;;22.67;20.10;100489.78;3546796;40;20046;-67
2021/05/24 07:37:07;;;;;;;2.08;0.75;;;;;;;22.24;20.46;100483.03;3546493;40;20057;-68
2021/05/24 07:39:36;;;;;;;1.98;0.70;;;;;;;21.83;20.30;100475.81;3549911;40;20066;-68
2021/05/24 07:42:05;;;;;;;1.52;0.60;;;;;;;21.43;21.18;100480.47;3544386;40;20422;-69
2021/05/24 07:44:34;;;;;;;1.75;0.60;;;;;;;21.06;21.47;100476.38;3547952;40;20086;-68
2021/05/24 07:47:03;;;;;;;0.90;0.55;;;;;;;20.73;22.08;100473.47;3541456;40;20058;-68
2021/05/24 07:49:31;;;;;;;1.92;0.77;;;;;;;20.45;22.00;100467.13;3542497;40;20102;-67
2021/05/24 07:51:59;;;;;;;0.40;0.40;;;;;;;20.21;22.38;100462.94;3540910;40;20039;-68
2021/05/24 07:54:27;;;;;;;1.48;0.50;;;;;;;20.02;22.97;100471.97;3547070;40;20054;-68
2021/05/24 07:56:56;;;;;;;2.63;0.60;;;;;;;19.84;23.21;100455.88;3545337;40;20302;-68
2021/05/24 07:59:24;;;;;;;1.27;0.65;;;;;;;19.66;23.09;100461.06;3548254;40;20053;-69
2021/05/24 08:01:52;;;;;;;2.13;0.70;;;;;;;19.50;23.72;100468.63;3547917;40;20057;-68
2021/05/24 08:04:20;;;;;;;1.70;0.50;;;;;;;19.37;23.78;100462.06;3547799;40;20357;-68
2021/05/24 08:06:48;;;;;;;1.33;0.80;;;;;;;19.22;23.76;100451.03;3545515;40;20058;-67
2021/05/24 08:09:16;;;;;;;0.77;0.50;;;;;;;19.11;24.06;100463.50;3542992;40;20054;-68
2021/05/24 08:11:44;;;;;;;1.67;0.65;;;;;;;18.98;24.21;100466.16;3545041;40;20060;-67
2021/05/24 08:14:15;;;;;;;2.17;0.47;;;;;;;18.87;24.18;100469.44;3539900;40;20046;-67
2021/05/24 08:16:43;;;;;;;1.98;0.70;;;;;;;18.73;24.46;100457.31;3546221;40;20077;-67
2021/05/24 08:19:13;;;;;;;2.10;0.70;;;;;;;18.63;24.66;100453.13;3548544;40;20050;-68
2021/05/24 08:21:42;;;;;;;0.90;0.60;;;;;;;18.51;24.27;100451.94;3547950;40;20050;-68
2021/05/24 08:24:11;;;;;;;1.33;0.70;;;;;;;18.41;24.57;100458.63;3548535;40;20062;-68
2021/05/24 08:26:40;;;;;;;2.05;0.70;;;;;;;18.30;25.33;100456.34;3539416;40;20054;-68
2021/05/24 08:29:09;;;;;;;1.10;0.60;;;;;;;18.22;25.19;100455.59;3541042;40;20050;-68
2021/05/24 08:31:40;;;;;;;1.60;0.70;;;;;;;18.16;25.18;100457.22;3548109;40;20061;-68
2021/05/24 08:34:08;;;;;;;1.92;0.65;;;;;;;18.06;25.58;100456.66;3548747;40;20050;-68
2021/05/24 08:36:37;;;;;;;1.80;0.70;;;;;;;18.00;25.68;100454.63;3545061;40;20327;-68
2021/05/24 08:39:07;;;;;;;0.80;0.60;;;;;;;17.94;25.56;100452.63;3547719;40;20057;-68
2021/05/24 08:41:39;;;;;;;1.33;0.75;;;;;;;17.85;25.52;100457.38;3547669;40;20386;-68
2021/05/24 08:44:08;;;;;;;1.42;0.60;;;;;;;17.81;25.98;100447.72;3544551;40;20416;-68
2021/05/24 08:46:38;;;;;;;2.92;0.80;;;;;;;17.77;25.75;100451.09;3548299;40;20133;-68
2021/05/24 08:49:07;;;;;;;1.77;0.70;;;;;;;17.71;25.80;100438.84;3548740;40;20053;-68
2021/05/24 08:51:36;;;;;;;2.53;0.70;;;;;;;17.66;26.60;100441.31;3547581;40;20053;-68
2021/05/24 08:54:05;;;;;;;1.08;0.50;;;;;;;17.62;26.26;100439.97;3537762;40;20331;-68
2021/05/24 08:56:33;;;;;;;0.88;0.50;;;;;;;17.57;26.39;100439.69;3547264;40;20054;-67
2021/05/24 08:59:02;;;;;;;1.67;0.60;;;;;;;17.54;27.02;100438.16;3546795;40;20070;-70
2021/05/24 09:01:31;;;;;;;1.10;0.63;;;;;;;17.51;26.76;100443.22;3547551;40;20090;-68
2021/05/24 09:04:05;;;;;;;2.45;0.70;;;;;;;17.51;26.88;100445.97;3544684;40;20151;-68
2021/05/24 09:06:37;;;;;;;1.00;0.50;;;;;;;17.46;26.58;100429.94;3548799;40;20049;-69
2021/05/24 09:09:14;;;;;;;2.15;0.60;;;;;;;17.47;27.23;100448.25;3543891;40;20058;-68
2021/05/24 09:11:45;;;;;;;1.85;0.60;;;;;;;17.40;26.44;100436.22;3546563;40;20128;-68
2021/05/24 09:14:15;;;;;;;1.15;0.50;;;;;;;17.39;26.76;100442.78;3531481;40;20314;-68
2021/05/24 09:16:43;;;;;;;1.58;0.50;;;;;;;17.35;26.82;100438.69;3547889;40;20120;-68
2021/05/24 09:19:16;;;;;;;1.05;0.50;;;;;;;17.34;27.37;100417.63;3548339;40;20058;-66
2021/05/24 09:21:51;;;;;;;2.83;0.88;;;;;;;17.33;27.33;100426.09;3547968;40;20107;-68
2021/05/24 09:24:21;;;;;;;1.52;0.60;;;;;;;17.30;27.06;100419.03;3548273;40;20050;-68
2021/05/24 09:26:50;;;;;;;2.10;0.80;;;;;;;17.27;26.91;100414.75;3548106;40;20141;-67
2021/05/24 09:29:22;;;;;;;1.52;0.70;;;;;;;17.27;27.21;100422.19;3548143;40;20149;-67
2021/05/24 09:32:17;;;;;;;0.98;0.60;;;;;;;17.25;27.50;100424.25;3547973;40;20132;-67
2021/05/24 09:34:47;;;;;;;0.95;0.50;;;;;;;17.23;27.61;100409.75;3549450;40;20058;-67
2021/05/24 09:37:17;;;;;;;1.25;0.60;;;;;;;17.24;27.60;100419.75;3547895;40;20046;-67
2021/05/24 09:39:45;;;;;;;1.33;0.70;;;;;;;17.22;27.58;100408.00;3547258;40;20054;-68
2021/05/24 09:42:16;;;;;;;1.45;0.65;;;;;;;17.22;27.33;100414.41;3539687;40;20054;-79
2021/05/24 09:44:46;;;;;;;0.75;0.50;;;;;;;17.21;27.31;100409.91;3542060;40;20051;-76
2021/05/24 09:47:14;;;;;;;1.85;0.70;;;;;;;17.20;27.37;100413.75;3548462;40;20046;-75
2021/05/24 09:49:44;;;;;;;1.60;0.60;;;;;;;17.22;27.37;100405.25;3548479;40;20315;-75
2021/05/24 09:52:12;;;;;;;1.85;0.82;;;;;;;17.19;27.98;100412.03;3548217;40;20053;-76
2021/05/24 09:54:41;;;;;;;2.05;0.70;;;;;;;17.22;27.65;100410.78;3547237;40;20061;-75
2021/05/24 09:57:11;;;;;;;1.00;0.50;;;;;;;17.22;27.87;100405.25;3552716;40;20054;-75
2021/05/24 09:59:39;;;;;;;2.30;0.93;;;;;;;17.20;28.22;100412.91;3548301;40;20054;-76
2021/05/24 10:02:09;;;;;;;1.23;0.60;;;;;;;17.20;28.17;100402.69;3542800;40;20058;-76
2021/05/24 10:04:38;;;;;;;1.42;0.60;;;;;;;17.19;28.82;100398.22;3549648;40;20054;-76
2021/05/24 10:07:06;;;;;;;1.20;0.70;;;;;;;17.20;28.76;100394.41;3547120;40;20300;-76
2021/05/24 10:09:36;;;;;;;1.88;0.80;;;;;;;17.21;28.64;100379.50;3550037;40;20113;-76
2021/05/24 10:12:07;;;;;;;1.75;0.75;;;;;;;17.22;29.26;100377.59;3549196;40;20058;-76
2021/05/24 10:14:35;;;;;;;1.67;0.85;;;;;;;17.22;29.19;100372.09;3549868;40;20139;-76
2021/05/24 10:17:05;;;;;;;2.50;1.00;;;;;;;17.22;28.62;100372.09;3549783;40;20065;-76
2021/05/24 10:19:33;;;;;;;2.00;0.70;;;;;;;17.23;28.87;100377.44;3539440;40;20054;-76
2021/05/24 10:22:01;;;;;;;1.98;0.82;;;;;;;17.22;28.73;100363.78;3545723;40;20619;-76
2021/05/24 10:24:29;;;;;;;1.45;0.70;;;;;;;17.22;28.58;100366.56;3548855;40;20399;-76
2021/05/24 10:27:00;;;;;;;1.90;0.65;;;;;;;17.23;28.89;100365.50;3540306;40;20058;-76
2021/05/24 10:29:30;;;;;;;0.98;0.73;;;;;;;17.22;29.13;100361.03;3548688;40;20113;-75
2021/05/24 10:32:00;;;;;;;1.90;0.80;;;;;;;17.20;28.37;100363.16;3539368;40;20062;-76
2021/05/24 10:34:36;;;;;;;1.30;0.65;;;;;;;17.21;28.75;100354.63;3550794;40;20054;-75
2021/05/24 10:37:06;;;;;;;1.50;0.60;;;;;;;17.18;28.89;100359.69;3549510;40;20078;-75
2021/05/24 10:39:45;;;;;;;1.58;0.70;;;;;;;17.18;28.71;100351.41;3548158;40;20308;-76
2021/05/24 10:42:14;;;;;;;2.33;0.77;;;;;;;17.13;28.25;100367.69;3539928;40;20030;-76
2021/05/24 10:44:45;;;;;;;3.13;0.75;;;;;;;17.13;28.98;100363.00;3549638;40;20042;-75
2021/05/24 10:47:21;;;;;;;1.13;0.70;;;;;;;17.13;28.82;100351.94;3549038;40;20043;-76
2021/05/24 10:50:06;;;;;;;1.38;0.60;;;;;;;17.13;29.15;100364.91;3549188;40;20380;-76
2021/05/24 10:52:36;;;;;;;2.20;0.60;;;;;;;17.08;28.42;100365.50;3537079;40;20104;-78
2021/05/24 10:55:35;;;;;;;2.05;0.73;;;;;;;17.07;29.03;100366.53;3549469;40;20050;-78
2021/05/24 10:58:13;;;;;;;0.85;0.60;;;;;;;17.05;29.13;100365.00;3550397;40;20429;-76
2021/05/24 11:00:50;;;;;;;1.63;0.63;;;;;;;17.06;29.05;100364.81;3548621;40;20062;-79
2021/05/24 11:03:18;;;;;;;1.10;0.68;;;;;;;17.03;29.22;100356.06;3548720;40;20380;-77
2021/05/24 11:05:47;;;;;;;1.60;0.70;;;;;;;17.03;29.14;100364.34;3553986;40;20079;-76
2021/05/24 11:08:29;;;;;;;3.22;0.77;;;;;;;17.05;29.34;100365.84;3549884;40;20129;-76
2021/05/24 11:10:57;;;;;;;1.83;0.75;;;;;;;16.99;29.27;100374.03;3544468;40;20085;-77
2021/05/24 11:13:29;;;;;;;2.50;0.85;;;;;;;17.00;29.35;100365.56;3549659;40;20062;-76
2021/05/24 11:16:12;;;;;;;1.25;0.60;;;;;;;16.97;29.28;100373.34;3530976;40;20070;-77
2021/05/24 11:18:41;;;;;;;0.88;0.60;;;;;;;16.93;29.44;100373.75;3540140;40;20058;-76
2021/05/24 11:21:27;;;;;;;1.45;0.50;;;;;;;16.94;29.68;100381.00;3548891;40;20054;-77
2021/05/24 11:24:05;;;;;;;1.05;0.73;;;;;;;16.92;29.26;100382.22;3544653;40;20401;-77
2021/05/24 11:26:34;;;;;;;0.75;0.43;;;;;;;16.89;30.04;100377.91;3549136;40;20429;-74
2021/05/24 11:29:08;;;;;;;2.03;0.80;;;;;;;16.89;30.50;100383.44;3549574;40;20399;-76
2021/05/24 11:31:45;;;;;;;1.30;0.70;;;;;;;16.90;30.92;100390.69;3551937;40;20372;-77
2021/05/24 11:34:34;;;;;;;1.10;0.60;;;;;;;16.88;30.94;100391.91;3553307;40;20046;-77
2021/05/24 11:37:05;;;;;;;1.42;0.60;;;;;;;16.85;30.61;100395.91;3551476;40;20406;-76
2021/05/24 11:39:48;;;;;;;3.03;1.02;;;;;;;16.86;31.19;100394.88;3549162;40;20270;-74
2021/05/24 11:42:23;;;;;;;;;;;;;;;16.52;30.69;100394.41;3549639;40;20074;-73
2021/05/24 11:44:57;;;;;;;1.30;0.50;;;;;;;16.71;30.97;100401.38;3551411;40;19933;-75